パリ/シャルル・ド・ゴール の空港の天気 - METARとTAF

シャルル・ド・ゴール国際空港(パリ) ( LFPG / CDG ) - フランス Paris
飛行場実況気象(Metar)
観測時間01/20 03:30 CET (01/20 02:30 UTC)
風向・風速東 3m/s
視程5000m
天気現象もや
全天を覆う雲 雲底高度 150m
気温1℃
湿度100%
気圧1010hPa
METARLFPG 200230Z 10005KT 5000 BR OVC005 01/01 Q1010 NOSIG
過去の天気等 Google飛行場航空写真 Wunderground天気予報

過去48時間のMETAR

飛行場予報(TAF)
発表時間: 1/20 00:00 CET (1/19 23:00 UTC)
予報対象時間: 20日1時 CET ~ 21日7時 CET
風向・風速東南東 4m/s
視程6000m
全天の8割程度の雲 雲底高度 150m
20日1時 CET ~ 20日10時 CET に 確率 40% で一時的に
視程3000m
天気現象弱い霧雨雨
全天の8割程度の雲 雲底高度 90m
20日7時 CET ~ 20日10時 CET に 確率 40% で一時的に
視程2000m
天気現象霧雨雨
全天の8割程度の雲 雲底高度 60m
20日11時 CET ~ 20日13時 CET に徐々に
風向・風速北北東 5m/s
全天の8割程度の雲 雲底高度 240m
20日20時 CET ~ 20日22時 CET に徐々に
視程10km以上
なし
21日5時 CET ~ 21日7時 CET に 確率 30% で一時的に
全天の8割程度の雲 雲底高度 90m
TAF LFPG 192300Z 2000/2106 12007KT 6000 BKN005 TX03/2014Z TNM03/2106Z
PROB40 TEMPO 2000/2009 3000 -DZRA BKN003
PROB40 TEMPO 2006/2009 2000 DZRA BKN002
BECMG 2010/2012 02010KT BKN008
BECMG 2019/2021 CAVOK
PROB30 TEMPO 2104/2106 BKN003